createdAt,value
2022-10-04T00:01:50.607Z,5.00
2022-10-04T00:04:26.202Z,4.40
2022-10-04T00:06:56.936Z,6.88
2022-10-04T00:09:29.505Z,5.63
2022-10-04T00:11:57.994Z,9.25
2022-10-04T00:14:37.346Z,6.88
2022-10-04T00:17:21.585Z,12.85
2022-10-04T00:19:54.324Z,7.15
2022-10-04T00:22:31.175Z,5.65
2022-10-04T00:25:09.997Z,8.52
2022-10-04T00:27:41.286Z,6.18
2022-10-04T00:30:26.018Z,5.60
2022-10-04T00:33:04.961Z,5.20
2022-10-04T00:35:46.291Z,6.88
2022-10-04T00:38:25.125Z,3.97
2022-10-04T00:41:06.283Z,5.40
2022-10-04T00:43:39.857Z,5.78
2022-10-04T00:46:22.511Z,7.40
2022-10-04T00:48:55.024Z,4.60
2022-10-04T00:51:54.487Z,8.13
2022-10-04T00:54:42.283Z,5.07
2022-10-04T00:57:16.742Z,6.13
2022-10-04T00:59:58.096Z,6.20
2022-10-04T01:02:46.152Z,4.13
2022-10-04T01:05:21.741Z,6.25
2022-10-04T01:07:56.995Z,7.07
2022-10-04T01:10:34.093Z,5.65
2022-10-04T01:13:09.891Z,3.97
2022-10-04T01:15:43.173Z,8.63
2022-10-04T01:18:15.209Z,5.18
2022-10-04T01:21:02.986Z,5.00
2022-10-04T01:23:42.012Z,6.05
2022-10-04T01:26:32.216Z,4.53
2022-10-04T01:29:24.905Z,3.90
2022-10-04T01:31:55.117Z,3.17
2022-10-04T01:34:25.106Z,5.35
2022-10-04T01:36:55.371Z,8.07
2022-10-04T01:39:24.504Z,6.18
2022-10-04T01:42:01.048Z,4.95
2022-10-04T01:44:31.580Z,7.50
2022-10-04T01:47:04.348Z,3.83
2022-10-04T01:49:35.918Z,4.43
2022-10-04T01:52:06.203Z,6.13
2022-10-04T01:54:43.865Z,5.07
2022-10-04T01:57:24.762Z,4.50
2022-10-04T02:00:01.499Z,5.10
2022-10-04T02:02:31.607Z,4.70
2022-10-04T02:05:01.684Z,5.78
2022-10-04T02:07:32.728Z,6.93
2022-10-04T02:10:04.861Z,5.15
2022-10-04T02:12:34.140Z,6.72
2022-10-04T02:15:06.318Z,4.32
2022-10-04T02:17:40.467Z,7.00
2022-10-04T02:20:21.965Z,9.13
2022-10-04T02:22:56.520Z,5.97
2022-10-04T02:25:23.926Z,5.70
2022-10-04T02:27:53.932Z,5.05
2022-10-04T02:30:21.932Z,6.10
2022-10-04T02:33:02.946Z,4.00
2022-10-04T02:35:44.157Z,7.07
2022-10-04T02:38:22.570Z,4.82
2022-10-04T02:40:54.278Z,4.82
2022-10-04T02:43:33.665Z,4.22
2022-10-04T02:46:14.311Z,3.67
2022-10-04T02:48:48.844Z,6.50
2022-10-04T02:51:36.404Z,5.30
2022-10-04T02:54:27.738Z,5.45
2022-10-04T02:56:56.632Z,4.70
2022-10-04T02:59:27.380Z,6.15
2022-10-04T03:02:00.331Z,4.38
2022-10-04T03:04:33.717Z,6.05
2022-10-04T03:07:08.947Z,7.75
2022-10-04T03:09:40.367Z,4.65
2022-10-04T03:12:12.430Z,6.65
2022-10-04T03:14:40.284Z,4.95
2022-10-04T03:17:08.103Z,6.40
2022-10-04T03:19:38.695Z,6.97
2022-10-04T03:22:14.751Z,7.80
2022-10-04T03:24:46.951Z,5.88
2022-10-04T03:27:24.990Z,5.35
2022-10-04T03:29:59.223Z,5.63
2022-10-04T03:32:30.744Z,6.28
2022-10-04T03:34:59.164Z,6.43
2022-10-04T03:37:29.442Z,9.90
2022-10-04T03:39:58.140Z,7.45
2022-10-04T03:42:30.305Z,8.18
2022-10-04T03:45:04.093Z,8.05
2022-10-04T03:47:37.699Z,9.00
2022-10-04T03:50:13.017Z,6.18
2022-10-04T03:52:46.111Z,7.78
2022-10-04T03:55:16.211Z,5.65
2022-10-04T03:57:46.114Z,10.00
2022-10-04T04:00:18.611Z,8.60
2022-10-04T04:02:56.649Z,11.23
2022-10-04T04:05:29.793Z,9.18
2022-10-04T04:08:14.367Z,8.63
2022-10-04T04:10:50.302Z,7.88
2022-10-04T04:13:36.430Z,6.85
2022-10-04T04:16:07.039Z,10.07
2022-10-04T04:18:37.817Z,7.40
2022-10-04T04:21:08.069Z,9.10
2022-10-04T04:23:48.763Z,8.20
2022-10-04T04:26:31.393Z,5.50
2022-10-04T04:29:03.772Z,6.15
2022-10-04T04:31:46.190Z,9.80
2022-10-04T04:34:24.871Z,7.20
2022-10-04T04:36:58.888Z,8.25
2022-10-04T04:39:44.807Z,7.50
2022-10-04T04:42:32.096Z,7.45
2022-10-04T04:45:06.260Z,10.25
2022-10-04T04:47:47.095Z,8.25
2022-10-04T04:50:18.214Z,6.88
2022-10-04T04:52:50.376Z,7.88
2022-10-04T04:55:39.911Z,5.70
2022-10-04T04:58:29.661Z,5.07
2022-10-04T05:01:03.436Z,5.32
2022-10-04T05:03:31.301Z,6.55
2022-10-04T05:06:00.964Z,10.77
2022-10-04T05:08:30.672Z,10.50
2022-10-04T05:11:00.320Z,12.48
2022-10-04T05:13:39.024Z,6.18
2022-10-04T05:16:21.101Z,7.35
2022-10-04T05:18:48.973Z,5.25
2022-10-04T05:21:27.204Z,7.55
2022-10-04T05:23:57.475Z,7.80
2022-10-04T05:26:32.105Z,6.28
2022-10-04T05:29:15.224Z,5.68
2022-10-04T05:31:50.150Z,8.30
2022-10-04T05:34:30.592Z,5.53
2022-10-04T05:37:00.838Z,5.20
2022-10-04T05:39:50.888Z,5.97
2022-10-04T05:42:30.323Z,7.05
2022-10-04T05:44:58.501Z,8.60
2022-10-04T05:47:30.893Z,20.73
2022-10-04T05:50:00.067Z,20.05
2022-10-04T05:52:36.000Z,10.68
2022-10-04T05:55:28.640Z,10.02
2022-10-04T05:58:06.510Z,8.07
2022-10-04T06:00:51.917Z,10.63
2022-10-04T06:03:46.789Z,6.32
2022-10-04T06:06:13.975Z,7.85
2022-10-04T06:08:52.259Z,5.97
2022-10-04T06:11:47.236Z,5.40
2022-10-04T06:14:24.712Z,6.68
2022-10-04T06:17:17.993Z,8.73
2022-10-04T06:19:51.243Z,9.95
2022-10-04T06:22:22.883Z,6.15
2022-10-04T06:24:56.002Z,7.72
2022-10-04T06:27:41.065Z,8.23
2022-10-04T06:30:17.262Z,7.30
2022-10-04T06:33:05.221Z,11.52
2022-10-04T06:35:51.112Z,10.75
2022-10-04T06:38:47.130Z,9.10
2022-10-04T06:41:41.218Z,7.72
2022-10-04T06:44:36.807Z,9.68
2022-10-04T06:47:30.022Z,7.75
2022-10-04T06:50:12.310Z,13.52
2022-10-04T06:52:48.794Z,11.23
2022-10-04T06:55:21.860Z,8.45
2022-10-04T06:58:02.506Z,11.38
2022-10-04T07:00:54.162Z,12.15
2022-10-04T07:03:39.829Z,9.15
2022-10-04T07:06:11.394Z,8.35
2022-10-04T07:08:52.644Z,11.77
2022-10-04T07:11:37.331Z,6.60
2022-10-04T07:14:04.603Z,7.10
2022-10-04T07:16:37.223Z,7.60
2022-10-04T07:19:23.817Z,9.38
2022-10-04T07:21:57.185Z,8.27
2022-10-04T07:24:36.162Z,8.02
2022-10-04T07:27:04.497Z,5.80
2022-10-04T07:29:41.828Z,8.35
2022-10-04T07:32:26.212Z,7.65
2022-10-04T07:35:04.925Z,8.60
2022-10-04T07:37:45.077Z,4.93
2022-10-04T07:40:24.862Z,6.75
2022-10-04T07:43:00.424Z,7.95
2022-10-04T07:45:39.859Z,6.32
2022-10-04T07:48:19.854Z,5.65
2022-10-04T07:51:28.127Z,6.85
2022-10-04T07:54:24.699Z,6.25
2022-10-04T07:56:59.483Z,6.90
2022-10-04T07:59:40.583Z,5.40
2022-10-04T08:02:24.031Z,6.75
2022-10-04T08:05:04.054Z,5.93
2022-10-04T08:08:03.702Z,7.45
2022-10-04T08:10:57.115Z,8.18
2022-10-04T08:13:39.999Z,7.40
2022-10-04T08:16:21.016Z,6.45
2022-10-04T08:19:06.563Z,6.18
2022-10-04T08:21:54.940Z,7.00
2022-10-04T08:25:03.761Z,5.90
2022-10-04T08:28:08.767Z,10.98
2022-10-04T08:31:13.273Z,9.48
2022-10-04T08:33:55.209Z,8.32
2022-10-04T08:37:01.903Z,18.65
2022-10-04T08:39:41.723Z,8.18
2022-10-04T08:42:29.696Z,8.20
2022-10-04T08:45:16.948Z,5.35
2022-10-04T08:47:50.296Z,5.25
2022-10-04T08:50:45.756Z,8.10
2022-10-04T08:53:22.028Z,6.63
2022-10-04T08:56:26.639Z,4.82
2022-10-04T08:59:10.059Z,5.00
2022-10-04T09:02:15.770Z,5.72
2022-10-04T09:05:15.344Z,5.40
2022-10-04T09:07:51.553Z,6.18
2022-10-04T09:10:45.199Z,4.70
2022-10-04T09:13:34.225Z,13.45
2022-10-04T09:16:39.896Z,11.70
2022-10-04T09:19:20.996Z,30.95
2022-10-04T09:22:14.728Z,9.65
2022-10-04T09:24:56.610Z,4.72
2022-10-04T09:27:54.234Z,3.83
2022-10-04T09:31:07.246Z,5.22
2022-10-04T09:34:17.169Z,5.07
2022-10-04T09:37:05.359Z,4.38
2022-10-04T09:40:00.484Z,4.60
2022-10-04T09:42:39.900Z,4.80
2022-10-04T09:45:28.818Z,3.83
2022-10-04T09:48:30.064Z,10.43
2022-10-04T09:51:07.999Z,24.77
2022-10-04T09:54:04.247Z,6.40
2022-10-04T09:57:22.444Z,4.75
2022-10-04T09:59:58.952Z,7.75
2022-10-04T10:02:42.675Z,3.97
2022-10-04T10:05:23.593Z,6.88
2022-10-04T10:08:11.188Z,2.75
2022-10-04T10:11:23.136Z,3.15
2022-10-04T10:14:08.237Z,4.35
2022-10-04T10:17:01.117Z,3.15
2022-10-04T10:19:37.085Z,3.47
2022-10-04T10:22:42.708Z,3.72
2022-10-04T10:25:28.869Z,3.72
2022-10-04T10:28:17.887Z,3.53
2022-10-04T10:30:53.841Z,1.83
2022-10-04T10:33:39.775Z,7.90
2022-10-04T10:36:27.108Z,4.05
2022-10-04T10:38:55.151Z,2.60
2022-10-04T10:41:53.433Z,5.85
2022-10-04T10:44:22.703Z,6.22
2022-10-04T10:47:05.395Z,4.47
2022-10-04T10:49:52.875Z,2.83
2022-10-04T10:52:57.394Z,1.92
2022-10-04T10:55:30.620Z,1.55
2022-10-04T10:58:00.864Z,3.22
2022-10-04T11:00:58.221Z,2.35
2022-10-04T11:03:54.717Z,2.75
2022-10-04T11:06:49.901Z,2.83
2022-10-04T11:09:57.472Z,2.67
2022-10-04T11:12:52.640Z,1.38
2022-10-04T11:15:44.296Z,2.60
2022-10-04T11:18:17.725Z,18.52
2022-10-04T11:21:08.460Z,17.33
2022-10-04T11:23:44.898Z,21.38
2022-10-04T11:26:32.379Z,7.22
2022-10-04T11:29:23.417Z,2.50
2022-10-04T11:32:20.896Z,5.65
2022-10-04T11:35:08.825Z,2.67
2022-10-04T11:37:43.594Z,2.72
2022-10-04T11:40:23.873Z,0.98
2022-10-04T11:43:06.383Z,2.17
2022-10-04T11:46:01.719Z,2.10
2022-10-04T11:48:41.065Z,2.72
2022-10-04T11:51:44.939Z,1.35
2022-10-04T11:54:43.098Z,2.33
2022-10-04T11:57:26.873Z,1.20
2022-10-04T12:00:17.174Z,1.90
2022-10-04T12:02:47.611Z,1.77
2022-10-04T12:05:38.865Z,1.05
2022-10-04T12:08:23.661Z,1.73
2022-10-04T12:11:50.674Z,3.83
2022-10-04T12:14:28.881Z,1.13
2022-10-04T12:17:19.713Z,1.38
2022-10-04T12:20:08.673Z,2.58
2022-10-04T12:22:47.859Z,1.92
2022-10-04T12:25:29.185Z,1.52
2022-10-04T12:28:17.884Z,1.10
2022-10-04T12:31:12.434Z,0.60
2022-10-04T12:33:54.037Z,0.90
2022-10-04T12:36:44.261Z,1.27
2022-10-04T12:39:50.287Z,1.30
2022-10-04T12:42:40.764Z,0.73
2022-10-04T12:45:26.000Z,1.73
2022-10-04T12:47:56.012Z,4.15
2022-10-04T12:50:48.050Z,4.97
2022-10-04T12:53:54.454Z,1.92
2022-10-04T12:56:37.280Z,1.08
2022-10-04T13:01:58.585Z,1.90
2022-10-04T13:04:39.142Z,3.67
2022-10-04T13:07:26.187Z,0.25
2022-10-04T13:10:22.997Z,0.30
2022-10-04T13:13:16.418Z,0.43
2022-10-04T13:19:14.617Z,1.33
2022-10-04T13:21:52.855Z,0.30
2022-10-04T13:25:00.376Z,0.68
2022-10-04T13:27:38.389Z,0.95
2022-10-04T13:30:31.412Z,0.82
2022-10-04T13:33:35.785Z,1.30
2022-10-04T13:36:20.313Z,1.80
2022-10-04T13:38:59.570Z,1.20
2022-10-04T13:41:43.649Z,3.17
2022-10-04T13:44:23.254Z,0.40
2022-10-04T13:47:14.070Z,0.73
2022-10-04T13:49:59.747Z,0.57
2022-10-04T13:53:05.876Z,1.80
2022-10-04T13:56:13.132Z,0.90
2022-10-04T13:59:00.700Z,2.97
2022-10-04T14:01:52.702Z,1.23
2022-10-04T14:04:35.042Z,0.68
2022-10-04T14:07:20.538Z,1.63
2022-10-04T14:09:53.912Z,0.98
2022-10-04T14:12:49.163Z,1.58
2022-10-04T14:15:35.225Z,3.10
2022-10-04T14:18:29.734Z,1.02
2022-10-04T14:21:32.738Z,1.58
2022-10-04T14:24:42.636Z,1.25
2022-10-04T14:27:34.582Z,2.20
2022-10-04T14:30:23.621Z,2.65
2022-10-04T14:32:53.070Z,1.60
2022-10-04T14:35:23.518Z,1.23
2022-10-04T14:38:12.044Z,1.40
2022-10-04T14:41:00.696Z,1.10
2022-10-04T14:44:07.022Z,1.35
2022-10-04T14:47:13.706Z,0.80
2022-10-04T14:49:43.927Z,1.85
2022-10-04T14:52:32.487Z,1.50
2022-10-04T14:55:10.834Z,1.63
2022-10-04T14:57:59.345Z,3.20
2022-10-04T15:00:57.747Z,7.45
2022-10-04T15:03:36.328Z,2.40
2022-10-04T15:06:21.344Z,2.58
2022-10-04T15:08:54.035Z,2.28
2022-10-04T15:11:42.499Z,1.35
2022-10-04T15:14:35.675Z,4.30
2022-10-04T15:17:34.646Z,2.10
2022-10-04T15:20:20.147Z,5.22
2022-10-04T15:22:55.815Z,1.15
2022-10-04T15:25:44.503Z,1.25
2022-10-04T15:28:35.225Z,1.25
2022-10-04T15:31:21.275Z,2.03
2022-10-04T15:34:07.369Z,1.48
2022-10-04T15:36:43.599Z,2.35
2022-10-04T15:39:45.588Z,1.17
2022-10-04T15:42:25.028Z,2.75
2022-10-04T15:44:55.342Z,1.48
2022-10-04T15:47:49.471Z,1.92
2022-10-04T15:50:53.968Z,2.05
2022-10-04T15:54:05.811Z,3.30
2022-10-04T15:57:00.504Z,3.88
2022-10-04T15:59:42.482Z,3.50
2022-10-04T16:02:28.055Z,8.73
2022-10-04T16:05:13.059Z,6.05
2022-10-04T16:07:50.213Z,4.93
2022-10-04T16:10:31.148Z,2.58
2022-10-04T16:13:27.616Z,1.80
2022-10-04T16:16:18.269Z,3.15
2022-10-04T16:18:54.590Z,1.73
2022-10-04T16:21:31.163Z,2.50
2022-10-04T16:24:20.015Z,1.00
2022-10-04T16:26:47.764Z,3.25
2022-10-04T16:30:08.022Z,1.80
2022-10-04T16:33:13.697Z,5.38
2022-10-04T16:36:02.497Z,4.88
2022-10-04T16:38:36.104Z,4.13
2022-10-04T16:41:27.521Z,4.60
2022-10-04T16:43:59.093Z,4.30
2022-10-04T16:49:24.474Z,5.43
2022-10-04T16:52:03.231Z,10.73
2022-10-04T16:54:42.978Z,13.15
2022-10-04T16:57:22.506Z,21.10
2022-10-04T17:00:19.972Z,20.15
2022-10-04T17:03:02.181Z,14.57
2022-10-04T17:05:53.282Z,13.48
2022-10-04T17:08:32.954Z,13.02
2022-10-04T17:11:33.839Z,14.02
2022-10-04T17:14:49.353Z,13.27
2022-10-04T17:17:24.718Z,10.90
2022-10-04T17:20:02.182Z,17.67
2022-10-04T17:22:53.716Z,17.30
2022-10-04T17:25:30.030Z,29.42
2022-10-04T17:28:10.763Z,34.50
2022-10-04T17:30:57.307Z,32.30
2022-10-04T17:33:54.219Z,48.30
2022-10-04T17:36:41.728Z,48.13
2022-10-04T17:39:50.344Z,33.00
2022-10-04T17:42:26.830Z,29.45
2022-10-04T17:45:31.717Z,46.15
2022-10-04T17:48:32.946Z,38.95
2022-10-04T17:51:19.036Z,34.72
2022-10-04T17:54:10.575Z,60.75
2022-10-04T17:56:49.332Z,55.13
2022-10-04T17:59:31.214Z,46.03
2022-10-04T18:02:17.346Z,33.30
2022-10-04T18:05:14.758Z,27.63
2022-10-04T18:07:48.096Z,47.75
2022-10-04T18:10:28.362Z,97.03
2022-10-04T18:13:13.003Z,70.03
2022-10-04T18:15:48.662Z,71.57
2022-10-04T18:18:18.884Z,24.55
2022-10-04T18:21:20.276Z,20.40
2022-10-04T18:23:59.448Z,18.33
2022-10-04T18:26:30.336Z,12.88
2022-10-04T18:29:00.782Z,12.23
2022-10-04T18:31:39.898Z,13.57
2022-10-04T18:34:28.553Z,12.05
2022-10-04T18:37:15.493Z,11.55
2022-10-04T18:39:53.114Z,12.63
2022-10-04T18:42:35.267Z,13.38
2022-10-04T18:45:23.748Z,11.90
2022-10-04T18:47:52.157Z,12.20
2022-10-04T18:50:36.124Z,11.80
2022-10-04T18:53:03.381Z,12.13
2022-10-04T18:56:07.653Z,11.88
2022-10-04T18:59:31.773Z,17.13
2022-10-04T19:02:12.709Z,22.67
2022-10-04T19:05:14.491Z,22.90
2022-10-04T19:07:50.548Z,22.60
2022-10-04T19:10:26.585Z,17.67
2022-10-04T19:13:14.805Z,12.02
2022-10-04T19:15:51.816Z,9.55
2022-10-04T19:18:34.004Z,10.93
2022-10-04T19:21:35.090Z,12.32
2022-10-04T19:24:35.820Z,8.27
2022-10-04T19:27:21.621Z,9.13
2022-10-04T19:30:02.548Z,12.15
2022-10-04T19:32:44.849Z,10.30
2022-10-04T19:35:35.090Z,7.20
2022-10-04T19:38:29.506Z,8.13
2022-10-04T19:41:10.682Z,16.15
2022-10-04T19:43:52.703Z,14.90
2022-10-04T19:46:22.330Z,12.25
2022-10-04T19:48:52.359Z,12.90
2022-10-04T19:51:34.045Z,31.60
2022-10-04T19:54:15.675Z,23.05
2022-10-04T19:56:52.836Z,17.60
2022-10-04T19:59:40.647Z,12.65
2022-10-04T20:02:14.289Z,12.93
2022-10-04T20:04:43.681Z,9.68
2022-10-04T20:07:28.052Z,10.98
2022-10-04T20:10:23.059Z,11.02
2022-10-04T20:13:10.738Z,11.40
2022-10-04T20:15:38.534Z,12.35
2022-10-04T20:18:33.783Z,9.82
2022-10-04T20:21:01.508Z,10.15
2022-10-04T20:23:40.693Z,7.72
2022-10-04T20:26:11.690Z,10.13
2022-10-04T20:28:44.224Z,13.40
2022-10-04T20:31:36.354Z,10.05
2022-10-04T20:34:31.906Z,8.13
2022-10-04T20:37:01.613Z,8.98
2022-10-04T20:39:41.289Z,8.43
2022-10-04T20:42:30.046Z,8.00
2022-10-04T20:45:09.151Z,10.65
2022-10-04T20:47:46.401Z,9.60
2022-10-04T20:50:15.630Z,12.45
2022-10-04T20:53:13.988Z,12.38
2022-10-04T20:55:44.207Z,9.93
2022-10-04T20:58:35.168Z,9.98
2022-10-04T21:01:16.974Z,12.60
2022-10-04T21:06:13.800Z,8.68
2022-10-04T21:08:45.475Z,8.68
2022-10-04T21:11:21.177Z,11.15
2022-10-04T21:13:58.636Z,7.72
2022-10-04T21:16:39.753Z,9.35
2022-10-04T21:19:43.134Z,7.90
2022-10-04T21:22:16.308Z,7.50
2022-10-04T21:24:49.631Z,6.72
2022-10-04T21:27:39.640Z,11.18
2022-10-04T21:30:27.257Z,8.75
2022-10-04T21:32:54.512Z,7.43
2022-10-04T21:35:21.769Z,8.63
2022-10-04T21:37:49.006Z,7.45
2022-10-04T21:40:19.088Z,10.88
2022-10-04T21:42:48.784Z,8.38
2022-10-04T21:45:16.073Z,9.10
2022-10-04T21:47:45.740Z,8.82
2022-10-04T21:50:15.888Z,9.52
2022-10-04T21:52:45.519Z,10.80
2022-10-04T21:55:15.036Z,8.38
2022-10-04T21:57:45.147Z,7.63
2022-10-04T22:00:12.880Z,9.15
2022-10-04T22:02:40.247Z,10.57
2022-10-04T22:05:09.949Z,10.68
2022-10-04T22:07:37.216Z,8.38
2022-10-04T22:10:07.245Z,9.50
2022-10-04T22:12:39.051Z,10.52
2022-10-04T22:17:41.223Z,9.43
2022-10-04T22:20:08.874Z,10.02
2022-10-04T22:22:39.695Z,7.13
2022-10-04T22:25:19.299Z,12.13
2022-10-04T22:27:49.709Z,7.57
2022-10-04T22:30:31.149Z,8.23
2022-10-04T22:33:04.370Z,8.48
2022-10-04T22:35:36.067Z,10.27
2022-10-04T22:38:09.108Z,8.88
2022-10-04T22:40:37.001Z,7.32
2022-10-04T22:43:04.374Z,6.55
2022-10-04T22:45:35.053Z,6.47
2022-10-04T22:48:11.181Z,9.00
2022-10-04T22:50:38.757Z,7.75
2022-10-04T22:53:19.329Z,6.80
2022-10-04T22:55:51.798Z,6.97
2022-10-04T22:58:21.115Z,10.57
2022-10-04T23:00:51.013Z,7.65
2022-10-04T23:03:31.498Z,6.85
2022-10-04T23:06:02.739Z,8.07
2022-10-04T23:08:30.769Z,9.15
2022-10-04T23:11:00.489Z,11.38
2022-10-04T23:13:30.238Z,9.77
2022-10-04T23:16:10.660Z,6.88
2022-10-04T23:18:38.009Z,7.15
2022-10-04T23:21:24.111Z,7.90
2022-10-04T23:23:55.368Z,7.82
2022-10-04T23:26:31.598Z,8.40
2022-10-04T23:28:59.279Z,8.18
2022-10-04T23:31:29.419Z,6.47
2022-10-04T23:33:58.939Z,7.32
2022-10-04T23:36:26.296Z,7.28
2022-10-04T23:39:01.589Z,8.88
2022-10-04T23:41:29.152Z,6.68
2022-10-04T23:43:56.427Z,6.85
2022-10-04T23:46:26.493Z,8.30
2022-10-04T23:48:53.910Z,7.60
2022-10-04T23:51:23.693Z,7.90
2022-10-04T23:53:51.011Z,6.30
2022-10-04T23:56:27.668Z,5.53
2022-10-04T23:58:58.116Z,6.30
